Bennington, Idaho
Current Conditions -  °F | °C
As of 12:55 PM on Thursday 18 Dec 2014 (Local Time) from KAFO Reporting Station
Overcast Overcast  
Wind Chill: 30°   Ceiling: 6000
Heat Index: 30°   Visibility: 10mi
Dew Point: 23°   Wind: 3mph
Humidity: 75%   Direction: 280°W
Pressure: 30.09"   Gusts: NA
Location:  42.3329°N, 111.271°W
Report Text: KAFO 181955Z AUTO 28003KT 10SM OVC060 M01/M05 A3009 RMK AO2
Loading
Personal Weather Stations






























Interactive Weather Map New forecast layout! Learn more

10-Day Weather Forecast

Advertisements
Track Severe Weather on mobile